sensor_id;sensor_type;location;lat;lon;timestamp;temperature;humidity
5276;DHT22;2661;50.786;12.728;2022-08-01T00:00:01;17.10;99.90
5276;DHT22;2661;50.786;12.728;2022-08-01T00:02:30;17.00;99.90
5276;DHT22;2661;50.786;12.728;2022-08-01T00:04:57;17.10;99.90
5276;DHT22;2661;50.786;12.728;2022-08-01T00:07:24;17.00;99.90
5276;DHT22;2661;50.786;12.728;2022-08-01T00:09:51;16.90;99.90
5276;DHT22;2661;50.786;12.728;2022-08-01T00:12:18;16.90;99.90
5276;DHT22;2661;50.786;12.728;2022-08-01T00:14:45;16.80;1.00
5276;DHT22;2661;50.786;12.728;2022-08-01T00:17:12;16.80;1.00
5276;DHT22;2661;50.786;12.728;2022-08-01T00:19:38;16.80;1.00
5276;DHT22;2661;50.786;12.728;2022-08-01T00:22:05;16.70;99.90
5276;DHT22;2661;50.786;12.728;2022-08-01T00:24:33;16.70;1.00
5276;DHT22;2661;50.786;12.728;2022-08-01T00:27:00;16.80;1.00
5276;DHT22;2661;50.786;12.728;2022-08-01T00:29:27;16.70;1.00
5276;DHT22;2661;50.786;12.728;2022-08-01T00:32:13;16.70;1.00
5276;DHT22;2661;50.786;12.728;2022-08-01T00:34:40;16.60;1.00
5276;DHT22;2661;50.786;12.728;2022-08-01T00:37:07;16.50;1.00
5276;DHT22;2661;50.786;12.728;2022-08-01T00:39:35;16.50;62.70
5276;DHT22;2661;50.786;12.728;2022-08-01T00:48:36;16.50;91.90
5276;DHT22;2661;50.786;12.728;2022-08-01T00:51:03;16.50;1.00
5276;DHT22;2661;50.786;12.728;2022-08-01T00:53:30;16.60;1.00
5276;DHT22;2661;50.786;12.728;2022-08-01T00:56:17;16.70;1.00
5276;DHT22;2661;50.786;12.728;2022-08-01T00:58:45;16.60;1.00
5276;DHT22;2661;50.786;12.728;2022-08-01T01:01:11;16.60;1.00
5276;DHT22;2661;50.786;12.728;2022-08-01T01:03:38;16.70;1.00
5276;DHT22;2661;50.786;12.728;2022-08-01T01:06:33;16.60;1.00
5276;DHT22;2661;50.786;12.728;2022-08-01T01:11:57;16.50;1.00
5276;DHT22;2661;50.786;12.728;2022-08-01T01:14:33;16.60;1.00
5276;DHT22;2661;50.786;12.728;2022-08-01T01:17:03;16.60;1.00
5276;DHT22;2661;50.786;12.728;2022-08-01T01:19:32;16.60;1.00
5276;DHT22;2661;50.786;12.728;2022-08-01T01:22:16;16.60;1.00
5276;DHT22;2661;50.786;12.728;2022-08-01T01:27:39;16.50;10.30
5276;DHT22;2661;50.786;12.728;2022-08-01T01:30:09;16.60;1.00
5276;DHT22;2661;50.786;12.728;2022-08-01T01:32:38;16.60;1.00
5276;DHT22;2661;50.786;12.728;2022-08-01T01:35:06;16.50;1.00
5276;DHT22;2661;50.786;12.728;2022-08-01T01:37:34;16.60;1.00
5276;DHT22;2661;50.786;12.728;2022-08-01T01:40:02;16.60;1.00
5276;DHT22;2661;50.786;12.728;2022-08-01T01:42:29;16.60;1.00
5276;DHT22;2661;50.786;12.728;2022-08-01T01:44:57;16.60;99.90
5276;DHT22;2661;50.786;12.728;2022-08-01T01:47:24;16.60;99.90
5276;DHT22;2661;50.786;12.728;2022-08-01T01:49:51;16.60;99.90
5276;DHT22;2661;50.786;12.728;2022-08-01T01:52:19;16.60;99.90
5276;DHT22;2661;50.786;12.728;2022-08-01T01:54:47;16.80;1.00
5276;DHT22;2661;50.786;12.728;2022-08-01T01:57:15;16.70;1.00
5276;DHT22;2661;50.786;12.728;2022-08-01T01:59:42;16.70;99.90
5276;DHT22;2661;50.786;12.728;2022-08-01T02:02:10;16.80;99.90
5276;DHT22;2661;50.786;12.728;2022-08-01T02:04:40;16.80;99.90
5276;DHT22;2661;50.786;12.728;2022-08-01T02:07:07;16.70;99.90
5276;DHT22;2661;50.786;12.728;2022-08-01T02:09:35;16.70;99.90
5276;DHT22;2661;50.786;12.728;2022-08-01T02:12:03;16.70;99.90
5276;DHT22;2661;50.786;12.728;2022-08-01T02:14:34;16.60;99.90
5276;DHT22;2661;50.786;12.728;2022-08-01T02:17:02;16.60;99.90
5276;DHT22;2661;50.786;12.728;2022-08-01T02:19:30;16.60;99.90
5276;DHT22;2661;50.786;12.728;2022-08-01T02:22:10;16.60;99.90
5276;DHT22;2661;50.786;12.728;2022-08-01T02:24:39;16.50;99.90
5276;DHT22;2661;50.786;12.728;2022-08-01T02:27:07;16.50;1.00
5276;DHT22;2661;50.786;12.728;2022-08-01T02:29:58;16.50;99.90
5276;DHT22;2661;50.786;12.728;2022-08-01T02:32:26;16.50;99.90
5276;DHT22;2661;50.786;12.728;2022-08-01T02:34:53;16.30;99.90
5276;DHT22;2661;50.786;12.728;2022-08-01T02:37:22;16.40;1.00
5276;DHT22;2661;50.786;12.728;2022-08-01T02:39:50;16.40;1.00
5276;DHT22;2661;50.786;12.728;2022-08-01T02:42:18;16.40;1.00
5276;DHT22;2661;50.786;12.728;2022-08-01T02:44:46;16.40;1.00
5276;DHT22;2661;50.786;12.728;2022-08-01T02:47:13;16.40;1.00
5276;DHT22;2661;50.786;12.728;2022-08-01T02:49:45;16.50;1.00
5276;DHT22;2661;50.786;12.728;2022-08-01T02:52:20;16.50;1.00
5276;DHT22;2661;50.786;12.728;2022-08-01T02:54:48;16.50;1.00
5276;DHT22;2661;50.786;12.728;2022-08-01T02:57:16;16.70;1.00
5276;DHT22;2661;50.786;12.728;2022-08-01T02:59:45;16.60;1.00
5276;DHT22;2661;50.786;12.728;2022-08-01T03:02:12;16.60;1.00
5276;DHT22;2661;50.786;12.728;2022-08-01T03:04:40;16.60;99.90
5276;DHT22;2661;50.786;12.728;2022-08-01T03:07:08;16.70;1.00
5276;DHT22;2661;50.786;12.728;2022-08-01T03:09:37;16.70;1.00
5276;DHT22;2661;50.786;12.728;2022-08-01T03:12:05;16.70;1.00
5276;DHT22;2661;50.786;12.728;2022-08-01T03:14:35;16.70;1.00
5276;DHT22;2661;50.786;12.728;2022-08-01T03:17:02;16.70;1.00
5276;DHT22;2661;50.786;12.728;2022-08-01T03:19:30;16.70;1.00
5276;DHT22;2661;50.786;12.728;2022-08-01T03:21:57;16.70;1.00
5276;DHT22;2661;50.786;12.728;2022-08-01T03:24:25;16.70;99.90
5276;DHT22;2661;50.786;12.728;2022-08-01T03:26:52;16.70;99.90
5276;DHT22;2661;50.786;12.728;2022-08-01T03:29:21;16.80;99.90
5276;DHT22;2661;50.786;12.728;2022-08-01T03:31:49;16.70;99.90
5276;DHT22;2661;50.786;12.728;2022-08-01T03:34:16;16.70;99.90
5276;DHT22;2661;50.786;12.728;2022-08-01T03:36:47;16.70;99.90
5276;DHT22;2661;50.786;12.728;2022-08-01T03:39:16;16.70;99.90
5276;DHT22;2661;50.786;12.728;2022-08-01T03:41:44;16.70;99.90
5276;DHT22;2661;50.786;12.728;2022-08-01T03:44:15;16.80;99.90
5276;DHT22;2661;50.786;12.728;2022-08-01T03:46:44;16.70;99.90
5276;DHT22;2661;50.786;12.728;2022-08-01T03:49:22;16.80;99.90
5276;DHT22;2661;50.786;12.728;2022-08-01T03:51:49;16.80;99.90
5276;DHT22;2661;50.786;12.728;2022-08-01T03:54:17;16.80;99.90
5276;DHT22;2661;50.786;12.728;2022-08-01T03:56:46;16.80;99.90
5276;DHT22;2661;50.786;12.728;2022-08-01T03:59:15;16.90;99.90
5276;DHT22;2661;50.786;12.728;2022-08-01T04:01:43;16.90;99.90
5276;DHT22;2661;50.786;12.728;2022-08-01T04:04:10;17.00;99.90
5276;DHT22;2661;50.786;12.728;2022-08-01T04:06:37;17.00;99.90
5276;DHT22;2661;50.786;12.728;2022-08-01T04:09:04;16.90;99.90
5276;DHT22;2661;50.786;12.728;2022-08-01T04:11:39;17.00;99.90
5276;DHT22;2661;50.786;12.728;2022-08-01T04:14:06;17.00;99.90
5276;DHT22;2661;50.786;12.728;2022-08-01T04:16:34;17.10;99.90
5276;DHT22;2661;50.786;12.728;2022-08-01T04:19:01;17.10;99.90
5276;DHT22;2661;50.786;12.728;2022-08-01T04:21:28;17.40;99.90
5276;DHT22;2661;50.786;12.728;2022-08-01T04:23:58;17.20;99.90
5276;DHT22;2661;50.786;12.728;2022-08-01T04:26:25;17.30;99.90
5276;DHT22;2661;50.786;12.728;2022-08-01T04:28:53;17.20;99.90
5276;DHT22;2661;50.786;12.728;2022-08-01T04:31:21;17.30;99.90
5276;DHT22;2661;50.786;12.728;2022-08-01T04:33:49;17.30;99.90
5276;DHT22;2661;50.786;12.728;2022-08-01T04:36:19;17.30;99.90
5276;DHT22;2661;50.786;12.728;2022-08-01T04:38:48;17.30;69.30
5276;DHT22;2661;50.786;12.728;2022-08-01T04:41:16;17.30;99.90
5276;DHT22;2661;50.786;12.728;2022-08-01T04:43:44;17.30;49.00
5276;DHT22;2661;50.786;12.728;2022-08-01T04:46:11;17.20;39.70
5276;DHT22;2661;50.786;12.728;2022-08-01T04:48:38;17.40;49.40
5276;DHT22;2661;50.786;12.728;2022-08-01T04:51:11;17.40;92.70
5276;DHT22;2661;50.786;12.728;2022-08-01T04:53:38;17.40;99.90
5276;DHT22;2661;50.786;12.728;2022-08-01T04:56:05;17.40;99.90
5276;DHT22;2661;50.786;12.728;2022-08-01T04:58:32;17.40;99.90
5276;DHT22;2661;50.786;12.728;2022-08-01T05:00:59;17.50;99.90
5276;DHT22;2661;50.786;12.728;2022-08-01T05:03:25;17.50;99.90
5276;DHT22;2661;50.786;12.728;2022-08-01T05:05:52;17.50;99.90
5276;DHT22;2661;50.786;12.728;2022-08-01T05:08:19;17.50;99.90
5276;DHT22;2661;50.786;12.728;2022-08-01T05:10:45;17.50;99.90
5276;DHT22;2661;50.786;12.728;2022-08-01T05:13:12;17.50;99.90
5276;DHT22;2661;50.786;12.728;2022-08-01T05:15:39;17.60;99.90
5276;DHT22;2661;50.786;12.728;2022-08-01T05:18:05;17.60;99.90
5276;DHT22;2661;50.786;12.728;2022-08-01T05:20:35;17.70;99.90
5276;DHT22;2661;50.786;12.728;2022-08-01T05:23:01;17.80;99.90
5276;DHT22;2661;50.786;12.728;2022-08-01T05:25:28;17.80;99.90
5276;DHT22;2661;50.786;12.728;2022-08-01T05:28:15;18.00;99.90
5276;DHT22;2661;50.786;12.728;2022-08-01T05:30:44;17.90;99.90
5276;DHT22;2661;50.786;12.728;2022-08-01T05:33:11;17.90;99.90
5276;DHT22;2661;50.786;12.728;2022-08-01T05:35:38;18.00;99.90
5276;DHT22;2661;50.786;12.728;2022-08-01T05:38:14;17.90;99.90
5276;DHT22;2661;50.786;12.728;2022-08-01T05:40:41;18.00;99.90
5276;DHT22;2661;50.786;12.728;2022-08-01T05:43:08;18.00;99.90
5276;DHT22;2661;50.786;12.728;2022-08-01T05:45:35;18.10;99.90
5276;DHT22;2661;50.786;12.728;2022-08-01T05:48:01;18.20;99.90
5276;DHT22;2661;50.786;12.728;2022-08-01T05:50:28;18.20;99.90
5276;DHT22;2661;50.786;12.728;2022-08-01T05:52:55;18.30;79.60
5276;DHT22;2661;50.786;12.728;2022-08-01T05:55:22;18.40;1.00
5276;DHT22;2661;50.786;12.728;2022-08-01T05:57:48;18.40;1.00
5276;DHT22;2661;50.786;12.728;2022-08-01T06:00:15;18.50;1.00
5276;DHT22;2661;50.786;12.728;2022-08-01T06:02:42;18.60;1.00
5276;DHT22;2661;50.786;12.728;2022-08-01T06:05:10;18.70;1.00
5276;DHT22;2661;50.786;12.728;2022-08-01T06:07:39;18.70;1.00
5276;DHT22;2661;50.786;12.728;2022-08-01T06:10:06;18.80;1.00
5276;DHT22;2661;50.786;12.728;2022-08-01T06:12:34;18.80;1.00
5276;DHT22;2661;50.786;12.728;2022-08-01T06:15:01;18.90;1.00
5276;DHT22;2661;50.786;12.728;2022-08-01T06:17:28;19.00;1.00
5276;DHT22;2661;50.786;12.728;2022-08-01T06:19:55;19.00;1.00
5276;DHT22;2661;50.786;12.728;2022-08-01T06:22:22;19.00;1.00
5276;DHT22;2661;50.786;12.728;2022-08-01T06:24:49;19.00;1.00
5276;DHT22;2661;50.786;12.728;2022-08-01T06:27:16;19.10;1.00
5276;DHT22;2661;50.786;12.728;2022-08-01T06:29:47;19.20;1.00
5276;DHT22;2661;50.786;12.728;2022-08-01T06:32:22;19.10;1.00
5276;DHT22;2661;50.786;12.728;2022-08-01T06:34:53;19.10;1.00
5276;DHT22;2661;50.786;12.728;2022-08-01T06:37:21;19.10;1.00
5276;DHT22;2661;50.786;12.728;2022-08-01T06:39:48;19.10;1.00
5276;DHT22;2661;50.786;12.728;2022-08-01T06:42:16;19.00;1.00
5276;DHT22;2661;50.786;12.728;2022-08-01T06:44:43;19.00;1.00
5276;DHT22;2661;50.786;12.728;2022-08-01T06:47:09;19.00;1.00
5276;DHT22;2661;50.786;12.728;2022-08-01T06:49:36;19.00;1.00
5276;DHT22;2661;50.786;12.728;2022-08-01T06:52:03;19.00;1.00
5276;DHT22;2661;50.786;12.728;2022-08-01T06:54:31;19.00;1.00
5276;DHT22;2661;50.786;12.728;2022-08-01T06:56:57;18.90;1.00
5276;DHT22;2661;50.786;12.728;2022-08-01T06:59:24;18.90;1.00
5276;DHT22;2661;50.786;12.728;2022-08-01T07:01:51;18.90;1.00
5276;DHT22;2661;50.786;12.728;2022-08-01T07:04:17;18.90;1.00
5276;DHT22;2661;50.786;12.728;2022-08-01T07:06:44;18.90;1.00
5276;DHT22;2661;50.786;12.728;2022-08-01T07:09:11;18.90;1.00
5276;DHT22;2661;50.786;12.728;2022-08-01T07:11:40;19.00;1.00
5276;DHT22;2661;50.786;12.728;2022-08-01T07:14:07;18.90;1.00
5276;DHT22;2661;50.786;12.728;2022-08-01T07:16:34;19.10;1.00
5276;DHT22;2661;50.786;12.728;2022-08-01T07:19:00;19.20;1.00
5276;DHT22;2661;50.786;12.728;2022-08-01T07:21:27;19.20;1.00
5276;DHT22;2661;50.786;12.728;2022-08-01T07:24:11;19.10;1.00
5276;DHT22;2661;50.786;12.728;2022-08-01T07:26:47;19.00;1.00
5276;DHT22;2661;50.786;12.728;2022-08-01T07:29:23;19.00;1.00
5276;DHT22;2661;50.786;12.728;2022-08-01T07:31:54;18.90;1.00
5276;DHT22;2661;50.786;12.728;2022-08-01T07:34:21;18.80;1.00
5276;DHT22;2661;50.786;12.728;2022-08-01T07:36:49;18.70;99.90
5276;DHT22;2661;50.786;12.728;2022-08-01T07:39:15;18.70;99.90
5276;DHT22;2661;50.786;12.728;2022-08-01T07:41:42;18.70;1.00
5276;DHT22;2661;50.786;12.728;2022-08-01T07:44:29;18.90;1.00
5276;DHT22;2661;50.786;12.728;2022-08-01T07:46:56;19.10;1.00
5276;DHT22;2661;50.786;12.728;2022-08-01T07:49:22;19.20;99.90
5276;DHT22;2661;50.786;12.728;2022-08-01T07:51:49;19.30;99.90
5276;DHT22;2661;50.786;12.728;2022-08-01T07:54:33;19.40;99.90
5276;DHT22;2661;50.786;12.728;2022-08-01T07:57:01;19.40;82.10
5276;DHT22;2661;50.786;12.728;2022-08-01T07:59:28;19.40;61.90
5276;DHT22;2661;50.786;12.728;2022-08-01T08:01:54;19.30;99.90
5276;DHT22;2661;50.786;12.728;2022-08-01T08:04:21;19.20;99.90
5276;DHT22;2661;50.786;12.728;2022-08-01T08:06:48;19.10;99.90
5276;DHT22;2661;50.786;12.728;2022-08-01T08:09:15;19.10;1.00
5276;DHT22;2661;50.786;12.728;2022-08-01T08:11:43;19.10;1.00
5276;DHT22;2661;50.786;12.728;2022-08-01T08:14:14;19.30;99.90
5276;DHT22;2661;50.786;12.728;2022-08-01T08:16:41;19.50;99.90
5276;DHT22;2661;50.786;12.728;2022-08-01T08:19:08;19.80;99.90
5276;DHT22;2661;50.786;12.728;2022-08-01T08:21:34;20.00;16.00
5276;DHT22;2661;50.786;12.728;2022-08-01T08:24:02;20.20;1.00
5276;DHT22;2661;50.786;12.728;2022-08-01T08:26:53;20.20;1.00
5276;DHT22;2661;50.786;12.728;2022-08-01T08:29:21;20.30;1.00
5276;DHT22;2661;50.786;12.728;2022-08-01T08:31:48;20.20;1.00
5276;DHT22;2661;50.786;12.728;2022-08-01T08:34:18;20.20;1.00
5276;DHT22;2661;50.786;12.728;2022-08-01T08:36:45;20.30;1.00
5276;DHT22;2661;50.786;12.728;2022-08-01T08:39:13;20.40;1.00
5276;DHT22;2661;50.786;12.728;2022-08-01T08:41:42;20.50;1.00
5276;DHT22;2661;50.786;12.728;2022-08-01T08:44:15;20.50;1.00
5276;DHT22;2661;50.786;12.728;2022-08-01T08:46:47;20.70;1.00
5276;DHT22;2661;50.786;12.728;2022-08-01T08:49:15;20.70;1.00
5276;DHT22;2661;50.786;12.728;2022-08-01T08:51:42;20.70;1.00
5276;DHT22;2661;50.786;12.728;2022-08-01T08:54:10;20.60;1.00
5276;DHT22;2661;50.786;12.728;2022-08-01T08:56:37;20.60;1.00
5276;DHT22;2661;50.786;12.728;2022-08-01T08:59:04;20.60;1.00
5276;DHT22;2661;50.786;12.728;2022-08-01T09:01:31;20.70;1.00
5276;DHT22;2661;50.786;12.728;2022-08-01T09:04:02;20.80;1.00
5276;DHT22;2661;50.786;12.728;2022-08-01T09:06:29;20.90;1.00
5276;DHT22;2661;50.786;12.728;2022-08-01T09:08:56;21.00;1.00
5276;DHT22;2661;50.786;12.728;2022-08-01T09:11:23;21.20;1.00
5276;DHT22;2661;50.786;12.728;2022-08-01T09:14:09;21.30;1.00
5276;DHT22;2661;50.786;12.728;2022-08-01T09:16:38;21.60;1.00
5276;DHT22;2661;50.786;12.728;2022-08-01T09:19:17;21.80;1.00
5276;DHT22;2661;50.786;12.728;2022-08-01T09:22:06;21.80;1.00
5276;DHT22;2661;50.786;12.728;2022-08-01T09:24:34;21.40;1.00
5276;DHT22;2661;50.786;12.728;2022-08-01T09:27:15;20.50;1.00
5276;DHT22;2661;50.786;12.728;2022-08-01T09:29:42;20.00;1.00
5276;DHT22;2661;50.786;12.728;2022-08-01T09:32:15;19.80;1.00
5276;DHT22;2661;50.786;12.728;2022-08-01T09:34:42;19.70;1.00
5276;DHT22;2661;50.786;12.728;2022-08-01T09:37:08;19.70;1.00
5276;DHT22;2661;50.786;12.728;2022-08-01T09:39:37;19.80;1.00
5276;DHT22;2661;50.786;12.728;2022-08-01T09:42:22;19.90;1.00
5276;DHT22;2661;50.786;12.728;2022-08-01T09:44:55;20.10;1.00
5276;DHT22;2661;50.786;12.728;2022-08-01T09:47:21;20.30;99.90
5276;DHT22;2661;50.786;12.728;2022-08-01T09:49:55;20.30;1.00
5276;DHT22;2661;50.786;12.728;2022-08-01T09:52:25;20.50;99.90
5276;DHT22;2661;50.786;12.728;2022-08-01T09:57:21;20.90;1.00
5276;DHT22;2661;50.786;12.728;2022-08-01T09:59:49;21.00;1.00
5276;DHT22;2661;50.786;12.728;2022-08-01T10:02:32;21.10;1.00
5276;DHT22;2661;50.786;12.728;2022-08-01T10:05:00;21.20;1.00
5276;DHT22;2661;50.786;12.728;2022-08-01T10:07:56;21.30;1.00
5276;DHT22;2661;50.786;12.728;2022-08-01T10:10:23;21.30;1.00
5276;DHT22;2661;50.786;12.728;2022-08-01T10:12:55;21.40;1.00
5276;DHT22;2661;50.786;12.728;2022-08-01T10:15:22;21.50;1.00
5276;DHT22;2661;50.786;12.728;2022-08-01T10:18:04;21.50;1.00
5276;DHT22;2661;50.786;12.728;2022-08-01T10:20:42;21.70;1.00
5276;DHT22;2661;50.786;12.728;2022-08-01T10:23:09;21.80;1.00
5276;DHT22;2661;50.786;12.728;2022-08-01T10:25:37;21.90;1.00
5276;DHT22;2661;50.786;12.728;2022-08-01T10:28:16;22.00;1.00
5276;DHT22;2661;50.786;12.728;2022-08-01T10:30:49;22.30;1.00
5276;DHT22;2661;50.786;12.728;2022-08-01T10:33:21;22.60;1.00
5276;DHT22;2661;50.786;12.728;2022-08-01T10:36:08;22.80;1.00
5276;DHT22;2661;50.786;12.728;2022-08-01T10:38:35;22.90;1.00
5276;DHT22;2661;50.786;12.728;2022-08-01T10:41:03;22.80;1.00
5276;DHT22;2661;50.786;12.728;2022-08-01T10:43:33;22.80;1.00
5276;DHT22;2661;50.786;12.728;2022-08-01T10:46:02;22.80;1.00
5276;DHT22;2661;50.786;12.728;2022-08-01T10:51:02;22.80;1.00
5276;DHT22;2661;50.786;12.728;2022-08-01T10:53:50;22.70;1.00
5276;DHT22;2661;50.786;12.728;2022-08-01T10:56:23;22.60;1.00
5276;DHT22;2661;50.786;12.728;2022-08-01T10:59:00;22.80;1.00
5276;DHT22;2661;50.786;12.728;2022-08-01T11:01:37;22.90;1.00
5276;DHT22;2661;50.786;12.728;2022-08-01T11:04:12;22.80;1.00
5276;DHT22;2661;50.786;12.728;2022-08-01T11:14:32;22.20;1.00
5276;DHT22;2661;50.786;12.728;2022-08-01T11:25:19;22.80;1.00
5276;DHT22;2661;50.786;12.728;2022-08-01T11:38:45;23.60;1.00
5276;DHT22;2661;50.786;12.728;2022-08-01T11:54:30;23.60;1.00
5276;DHT22;2661;50.786;12.728;2022-08-01T11:57:03;23.70;1.00
5276;DHT22;2661;50.786;12.728;2022-08-01T12:02:28;23.50;1.00
5276;DHT22;2661;50.786;12.728;2022-08-01T12:05:00;23.20;1.00
5276;DHT22;2661;50.786;12.728;2022-08-01T12:07:28;23.10;1.00
5276;DHT22;2661;50.786;12.728;2022-08-01T12:12:35;23.00;1.00
5276;DHT22;2661;50.786;12.728;2022-08-01T12:15:06;23.00;1.00
5276;DHT22;2661;50.786;12.728;2022-08-01T12:17:38;23.00;1.00
5276;DHT22;2661;50.786;12.728;2022-08-01T12:20:10;22.90;1.00
5276;DHT22;2661;50.786;12.728;2022-08-01T12:22:37;23.00;1.00
5276;DHT22;2661;50.786;12.728;2022-08-01T12:27:34;22.90;1.00
5276;DHT22;2661;50.786;12.728;2022-08-01T12:30:03;23.10;1.00
5276;DHT22;2661;50.786;12.728;2022-08-01T12:32:31;23.10;1.00
5276;DHT22;2661;50.786;12.728;2022-08-01T12:37:38;23.20;1.00
5276;DHT22;2661;50.786;12.728;2022-08-01T12:42:39;23.40;1.00
5276;DHT22;2661;50.786;12.728;2022-08-01T12:45:09;23.60;1.00
5276;DHT22;2661;50.786;12.728;2022-08-01T12:47:37;23.70;1.00
5276;DHT22;2661;50.786;12.728;2022-08-01T12:50:19;23.70;1.00
5276;DHT22;2661;50.786;12.728;2022-08-01T12:52:48;23.70;1.00
5276;DHT22;2661;50.786;12.728;2022-08-01T12:55:16;23.60;1.00
5276;DHT22;2661;50.786;12.728;2022-08-01T12:57:45;23.70;1.00
5276;DHT22;2661;50.786;12.728;2022-08-01T13:02:46;23.70;1.00
5276;DHT22;2661;50.786;12.728;2022-08-01T13:05:14;23.70;1.00
5276;DHT22;2661;50.786;12.728;2022-08-01T13:07:42;23.70;1.00
5276;DHT22;2661;50.786;12.728;2022-08-01T13:10:12;23.90;1.00
5276;DHT22;2661;50.786;12.728;2022-08-01T13:12:39;23.90;1.00
5276;DHT22;2661;50.786;12.728;2022-08-01T13:15:22;23.90;1.00
5276;DHT22;2661;50.786;12.728;2022-08-01T13:17:51;24.00;1.00
5276;DHT22;2661;50.786;12.728;2022-08-01T13:20:21;23.90;1.00
5276;DHT22;2661;50.786;12.728;2022-08-01T13:22:47;23.90;1.00
5276;DHT22;2661;50.786;12.728;2022-08-01T13:25:15;23.90;1.00
5276;DHT22;2661;50.786;12.728;2022-08-01T13:27:47;23.80;1.00
5276;DHT22;2661;50.786;12.728;2022-08-01T13:30:19;23.80;1.00
5276;DHT22;2661;50.786;12.728;2022-08-01T13:32:58;23.80;1.00
5276;DHT22;2661;50.786;12.728;2022-08-01T13:35:27;23.80;1.00
5276;DHT22;2661;50.786;12.728;2022-08-01T13:37:53;23.80;1.00
5276;DHT22;2661;50.786;12.728;2022-08-01T13:40:24;23.80;1.00
5276;DHT22;2661;50.786;12.728;2022-08-01T13:42:52;24.10;1.00
5276;DHT22;2661;50.786;12.728;2022-08-01T13:45:20;24.20;1.00
5276;DHT22;2661;50.786;12.728;2022-08-01T13:47:48;24.40;1.00
5276;DHT22;2661;50.786;12.728;2022-08-01T13:50:35;24.40;1.00
5276;DHT22;2661;50.786;12.728;2022-08-01T13:53:02;24.20;1.00
5276;DHT22;2661;50.786;12.728;2022-08-01T13:55:29;24.20;1.00
5276;DHT22;2661;50.786;12.728;2022-08-01T13:58:00;24.00;1.00
5276;DHT22;2661;50.786;12.728;2022-08-01T14:00:27;23.90;1.00
5276;DHT22;2661;50.786;12.728;2022-08-01T14:02:54;23.90;1.00
5276;DHT22;2661;50.786;12.728;2022-08-01T14:05:20;23.70;1.00
5276;DHT22;2661;50.786;12.728;2022-08-01T14:07:47;23.70;1.00
5276;DHT22;2661;50.786;12.728;2022-08-01T14:10:14;23.60;1.00
5276;DHT22;2661;50.786;12.728;2022-08-01T14:12:48;23.70;1.00
5276;DHT22;2661;50.786;12.728;2022-08-01T14:15:15;23.80;1.00
5276;DHT22;2661;50.786;12.728;2022-08-01T14:18:02;23.80;1.00
5276;DHT22;2661;50.786;12.728;2022-08-01T14:20:31;23.90;1.00
5276;DHT22;2661;50.786;12.728;2022-08-01T14:22:58;23.90;1.00
5276;DHT22;2661;50.786;12.728;2022-08-01T14:25:25;24.00;1.00
5276;DHT22;2661;50.786;12.728;2022-08-01T14:28:12;24.00;1.00
5276;DHT22;2661;50.786;12.728;2022-08-01T14:30:38;24.00;1.00
5276;DHT22;2661;50.786;12.728;2022-08-01T14:33:07;24.10;1.00
5276;DHT22;2661;50.786;12.728;2022-08-01T14:35:34;24.10;1.00
5276;DHT22;2661;50.786;12.728;2022-08-01T14:38:20;24.10;1.00
5276;DHT22;2661;50.786;12.728;2022-08-01T14:40:57;24.00;1.00
5276;DHT22;2661;50.786;12.728;2022-08-01T14:43:24;23.90;1.00
5276;DHT22;2661;50.786;12.728;2022-08-01T14:45:59;23.80;1.00
5276;DHT22;2661;50.786;12.728;2022-08-01T14:48:25;23.70;1.00
5276;DHT22;2661;50.786;12.728;2022-08-01T14:50:52;23.70;1.00
5276;DHT22;2661;50.786;12.728;2022-08-01T14:53:19;23.90;1.00
5276;DHT22;2661;50.786;12.728;2022-08-01T14:55:46;24.00;1.00
5276;DHT22;2661;50.786;12.728;2022-08-01T14:58:13;24.10;1.00
5276;DHT22;2661;50.786;12.728;2022-08-01T15:00:39;24.10;1.00
5276;DHT22;2661;50.786;12.728;2022-08-01T15:03:06;24.10;1.00
5276;DHT22;2661;50.786;12.728;2022-08-01T15:05:33;24.20;1.00
5276;DHT22;2661;50.786;12.728;2022-08-01T15:08:00;24.30;1.00
5276;DHT22;2661;50.786;12.728;2022-08-01T15:10:26;24.20;1.00
5276;DHT22;2661;50.786;12.728;2022-08-01T15:12:53;24.10;1.00
5276;DHT22;2661;50.786;12.728;2022-08-01T15:15:20;24.10;1.00
5276;DHT22;2661;50.786;12.728;2022-08-01T15:17:47;24.10;1.00
5276;DHT22;2661;50.786;12.728;2022-08-01T15:20:14;23.90;1.00
5276;DHT22;2661;50.786;12.728;2022-08-01T15:22:41;23.80;1.00
5276;DHT22;2661;50.786;12.728;2022-08-01T15:25:07;23.70;1.00
5276;DHT22;2661;50.786;12.728;2022-08-01T15:27:34;23.60;1.00
5276;DHT22;2661;50.786;12.728;2022-08-01T15:30:01;23.60;1.00
5276;DHT22;2661;50.786;12.728;2022-08-01T15:32:29;23.60;1.00
5276;DHT22;2661;50.786;12.728;2022-08-01T15:34:56;23.60;1.00
5276;DHT22;2661;50.786;12.728;2022-08-01T15:37:23;23.60;1.00
5276;DHT22;2661;50.786;12.728;2022-08-01T15:39:49;23.60;1.00
5276;DHT22;2661;50.786;12.728;2022-08-01T15:42:22;23.60;1.00
5276;DHT22;2661;50.786;12.728;2022-08-01T15:44:52;23.70;1.00
5276;DHT22;2661;50.786;12.728;2022-08-01T15:47:19;23.80;1.00
5276;DHT22;2661;50.786;12.728;2022-08-01T15:49:47;23.90;1.00
5276;DHT22;2661;50.786;12.728;2022-08-01T15:52:18;24.10;1.00
5276;DHT22;2661;50.786;12.728;2022-08-01T15:54:48;24.10;1.00
5276;DHT22;2661;50.786;12.728;2022-08-01T15:57:15;24.10;1.00
5276;DHT22;2661;50.786;12.728;2022-08-01T15:59:41;24.00;1.00
5276;DHT22;2661;50.786;12.728;2022-08-01T16:02:08;23.90;1.00
5276;DHT22;2661;50.786;12.728;2022-08-01T16:04:36;23.80;1.00
5276;DHT22;2661;50.786;12.728;2022-08-01T16:07:04;23.60;1.00
5276;DHT22;2661;50.786;12.728;2022-08-01T16:09:31;23.50;1.00
5276;DHT22;2661;50.786;12.728;2022-08-01T16:11:58;23.60;1.00
5276;DHT22;2661;50.786;12.728;2022-08-01T16:14:25;23.70;1.00
5276;DHT22;2661;50.786;12.728;2022-08-01T16:16:52;23.80;1.00
5276;DHT22;2661;50.786;12.728;2022-08-01T16:19:21;23.90;1.00
5276;DHT22;2661;50.786;12.728;2022-08-01T16:21:49;23.90;1.00
5276;DHT22;2661;50.786;12.728;2022-08-01T16:24:17;24.10;1.00
5276;DHT22;2661;50.786;12.728;2022-08-01T16:26:44;24.20;1.00
5276;DHT22;2661;50.786;12.728;2022-08-01T16:29:10;24.20;1.00
5276;DHT22;2661;50.786;12.728;2022-08-01T16:31:37;24.10;1.00
5276;DHT22;2661;50.786;12.728;2022-08-01T16:34:24;24.10;1.00
5276;DHT22;2661;50.786;12.728;2022-08-01T16:36:51;24.10;1.00
5276;DHT22;2661;50.786;12.728;2022-08-01T16:39:18;24.10;1.00
5276;DHT22;2661;50.786;12.728;2022-08-01T16:41:49;24.10;1.00
5276;DHT22;2661;50.786;12.728;2022-08-01T16:44:21;24.00;1.00
5276;DHT22;2661;50.786;12.728;2022-08-01T16:46:59;24.20;1.00
5276;DHT22;2661;50.786;12.728;2022-08-01T16:49:26;24.20;1.00
5276;DHT22;2661;50.786;12.728;2022-08-01T16:51:53;24.30;1.00
5276;DHT22;2661;50.786;12.728;2022-08-01T16:54:20;24.40;1.00
5276;DHT22;2661;50.786;12.728;2022-08-01T16:56:51;24.10;1.00
5276;DHT22;2661;50.786;12.728;2022-08-01T16:59:18;24.00;1.00
5276;DHT22;2661;50.786;12.728;2022-08-01T17:01:45;23.80;1.00
5276;DHT22;2661;50.786;12.728;2022-08-01T17:04:27;23.60;1.00
5276;DHT22;2661;50.786;12.728;2022-08-01T17:06:54;23.40;1.00
5276;DHT22;2661;50.786;12.728;2022-08-01T17:09:21;23.40;1.00
5276;DHT22;2661;50.786;12.728;2022-08-01T17:11:48;23.20;1.00
5276;DHT22;2661;50.786;12.728;2022-08-01T17:14:15;23.10;1.00
5276;DHT22;2661;50.786;12.728;2022-08-01T17:16:41;23.10;1.00
5276;DHT22;2661;50.786;12.728;2022-08-01T17:19:08;23.00;1.00
5276;DHT22;2661;50.786;12.728;2022-08-01T17:21:35;22.90;1.00
5276;DHT22;2661;50.786;12.728;2022-08-01T17:24:06;22.80;1.00